createdAt,value
2018-05-31T14:14:49.626Z,29.30
2018-05-31T14:17:17.191Z,29.10
2018-05-31T14:19:44.772Z,28.90
2018-05-31T14:22:13.100Z,28.80
2018-05-31T14:24:40.651Z,29.30
2018-05-31T14:27:08.187Z,29.30
2018-05-31T14:29:36.495Z,30.90
2018-05-31T14:32:04.076Z,31.50
2018-05-31T14:34:31.652Z,31.70
2018-05-31T14:36:59.201Z,31.20
2018-05-31T14:39:26.763Z,31.20
2018-05-31T14:41:54.279Z,31.20
2018-05-31T14:44:21.817Z,32.10
2018-05-31T14:46:50.108Z,32.20
2018-05-31T14:49:18.429Z,32.40
2018-05-31T14:51:46.801Z,32.40
2018-05-31T14:54:14.365Z,32.40
2018-05-31T14:56:41.916Z,32.30
2018-05-31T14:59:09.456Z,32.10
2018-05-31T15:01:36.983Z,31.80
2018-05-31T15:04:05.071Z,31.80
2018-05-31T15:06:32.625Z,31.80
2018-05-31T15:09:00.957Z,31.60
2018-05-31T15:11:28.488Z,31.50
2018-05-31T15:13:56.035Z,31.10
2018-05-31T15:16:23.559Z,30.70
2018-05-31T15:18:51.881Z,30.50
2018-05-31T15:21:19.403Z,30.50
2018-05-31T15:23:46.960Z,30.50
2018-05-31T15:26:14.890Z,30.40
2018-05-31T15:28:42.427Z,30.20
2018-05-31T15:31:09.948Z,30.00
2018-05-31T15:33:37.458Z,30.00
2018-05-31T15:36:05.013Z,30.00
2018-05-31T15:38:33.296Z,30.20
2018-05-31T15:41:00.836Z,30.20
2018-05-31T15:43:29.128Z,30.10
2018-05-31T15:45:56.672Z,29.90
2018-05-31T15:48:24.199Z,29.80
2018-05-31T15:50:51.742Z,29.70
2018-05-31T15:53:19.254Z,29.00
2018-05-31T15:55:46.795Z,29.00
2018-05-31T15:58:14.335Z,28.90
2018-05-31T16:00:42.646Z,28.80
2018-05-31T16:03:10.173Z,28.60
2018-05-31T16:05:38.482Z,29.50
2018-05-31T16:08:06.000Z,28.40
2018-05-31T16:10:33.544Z,28.30
2018-05-31T16:13:01.071Z,28.30
2018-05-31T16:15:28.602Z,28.30
2018-05-31T16:17:56.879Z,28.20
2018-05-31T16:20:25.184Z,28.20
2018-05-31T16:22:52.695Z,28.30
2018-05-31T16:25:20.253Z,28.20
2018-05-31T16:27:48.556Z,28.20
2018-05-31T16:30:16.094Z,28.20
2018-05-31T16:32:44.384Z,28.10
2018-05-31T16:35:12.700Z,28.20
2018-05-31T16:37:40.229Z,28.30
2018-05-31T16:40:07.811Z,28.20
2018-05-31T16:42:35.333Z,28.20
2018-05-31T16:45:03.642Z,28.20
2018-05-31T16:47:31.160Z,28.30
2018-05-31T16:49:59.469Z,28.20
2018-05-31T16:52:26.992Z,28.20
2018-05-31T16:54:54.545Z,28.30
2018-05-31T16:57:22.856Z,28.30
2018-05-31T16:59:50.386Z,28.30
2018-05-31T17:02:17.903Z,28.30
2018-05-31T17:04:45.498Z,28.20
2018-05-31T17:07:12.991Z,28.30
2018-05-31T17:09:48.639Z,28.30
2018-05-31T17:12:16.328Z,28.40
2018-05-31T17:14:43.852Z,28.60
2018-05-31T17:17:12.157Z,29.00
2018-05-31T17:19:39.667Z,29.50
2018-05-31T17:22:07.699Z,29.90
2018-05-31T17:24:57.767Z,30.20
2018-05-31T17:27:26.255Z,30.20
2018-05-31T17:29:53.950Z,30.00
2018-05-31T17:32:21.968Z,30.00
2018-05-31T17:34:49.898Z,29.70
2018-05-31T17:37:17.440Z,29.40
2018-05-31T17:39:44.975Z,29.00
2018-05-31T17:42:12.516Z,28.70
2018-05-31T17:44:40.034Z,28.40
2018-05-31T17:47:07.579Z,28.20
2018-05-31T17:49:35.856Z,28.00
2018-05-31T17:52:04.008Z,27.80
2018-05-31T17:54:31.536Z,27.60
2018-05-31T17:56:59.852Z,27.50
2018-05-31T17:59:27.374Z,27.20
2018-05-31T18:01:54.912Z,27.10
2018-05-31T18:04:23.224Z,27.10
2018-05-31T18:06:50.764Z,27.10
2018-05-31T18:09:19.071Z,27.00
2018-05-31T18:11:47.739Z,26.90
2018-05-31T18:14:15.265Z,26.80
2018-05-31T18:16:42.803Z,26.80
2018-05-31T18:19:10.320Z,26.70
2018-05-31T18:21:38.274Z,26.70
2018-05-31T18:24:07.086Z,26.60
2018-05-31T18:26:35.388Z,26.50
2018-05-31T18:29:02.940Z,26.50
2018-05-31T18:31:30.890Z,26.40
2018-05-31T18:33:58.415Z,26.40
2018-05-31T18:36:25.980Z,26.40
2018-05-31T18:38:53.507Z,26.40
2018-05-31T18:41:21.812Z,26.20
2018-05-31T18:43:49.540Z,26.10
2018-05-31T18:46:17.942Z,26.10
2018-05-31T18:48:46.394Z,26.00
2018-05-31T18:51:19.665Z,26.00
2018-05-31T18:53:47.736Z,26.10
2018-05-31T18:56:15.348Z,26.00
2018-05-31T18:58:42.886Z,25.90
2018-05-31T19:01:10.432Z,25.80
2018-05-31T19:03:38.723Z,25.80
2018-05-31T19:06:06.268Z,25.80
2018-05-31T19:08:34.551Z,25.80
2018-05-31T19:11:02.875Z,25.60
2018-05-31T19:13:36.011Z,25.60
2018-05-31T19:16:04.314Z,25.50
2018-05-31T19:18:38.256Z,25.30
2018-05-31T19:21:05.791Z,25.20
2018-05-31T19:23:33.302Z,25.20
2018-05-31T19:26:00.822Z,25.10
2018-05-31T19:28:28.368Z,25.10
2018-05-31T19:31:02.338Z,25.00
2018-05-31T19:33:30.650Z,25.00
2018-05-31T19:36:04.271Z,25.10
2018-05-31T19:38:31.800Z,25.20
2018-05-31T19:40:59.335Z,25.20
2018-05-31T19:43:33.306Z,25.10
2018-05-31T19:46:01.317Z,25.10
2018-05-31T19:48:28.855Z,25.00
2018-05-31T19:50:57.165Z,24.80
2018-05-31T19:53:30.506Z,24.80
2018-05-31T19:55:59.533Z,24.80
2018-05-31T19:58:33.571Z,24.80
2018-05-31T20:01:06.710Z,24.70
2018-05-31T20:03:35.079Z,24.60
2018-05-31T20:06:02.606Z,24.70
2018-05-31T20:08:30.143Z,24.80
2018-05-31T20:10:57.664Z,24.70
2018-05-31T20:13:25.254Z,24.80
2018-05-31T20:15:52.787Z,24.70
2018-05-31T20:18:21.108Z,24.70
2018-05-31T20:20:48.656Z,24.60
2018-05-31T20:23:16.183Z,24.60
2018-05-31T20:25:43.765Z,24.60
2018-05-31T20:28:11.321Z,24.60
2018-05-31T20:30:38.909Z,24.50
2018-05-31T20:33:06.430Z,24.50
2018-05-31T20:35:34.009Z,24.40
2018-05-31T20:38:02.329Z,24.50
2018-05-31T20:40:29.908Z,24.60
2018-05-31T20:42:57.476Z,24.80
2018-05-31T20:45:25.023Z,25.00
2018-05-31T20:47:52.598Z,25.00
2018-05-31T20:50:20.900Z,25.10
2018-05-31T20:52:49.195Z,25.00
2018-05-31T20:55:16.713Z,25.00
2018-05-31T20:57:45.038Z,25.00
2018-05-31T21:00:12.571Z,25.00
2018-05-31T21:02:40.122Z,25.00
2018-05-31T21:05:08.402Z,25.10
2018-05-31T21:07:37.442Z,25.20
2018-05-31T21:10:04.983Z,25.20
2018-05-31T21:12:32.491Z,25.20
2018-05-31T21:15:01.543Z,25.10
2018-05-31T21:17:29.073Z,25.20
2018-05-31T21:19:57.745Z,25.20
2018-05-31T21:22:25.247Z,25.10
2018-05-31T21:24:52.794Z,25.00
2018-05-31T21:27:20.379Z,25.00
2018-05-31T21:29:47.919Z,24.90
2018-05-31T21:32:15.440Z,24.90
2018-05-31T21:34:43.741Z,24.60
2018-05-31T21:37:11.266Z,24.10
2018-05-31T21:39:39.596Z,23.90
2018-05-31T21:42:07.882Z,23.80
2018-05-31T21:44:35.428Z,23.80
2018-05-31T21:49:32.142Z,23.40
